createdAt,value
2023-02-01T00:00:05.867Z,6.21
2023-02-01T00:02:33.343Z,5.93
2023-02-01T00:05:00.873Z,5.81
2023-02-01T00:07:28.265Z,5.90
2023-02-01T00:09:57.019Z,6.06
2023-02-01T00:12:24.446Z,6.16
2023-02-01T00:14:51.843Z,6.11
2023-02-01T00:17:19.601Z,6.61
2023-02-01T00:19:47.032Z,6.73
2023-02-01T00:22:14.441Z,6.10
2023-02-01T00:24:42.108Z,6.35
2023-02-01T00:27:10.822Z,6.23
2023-02-01T00:29:38.215Z,5.91
2023-02-01T00:32:06.080Z,5.85
2023-02-01T00:34:33.528Z,5.83
2023-02-01T00:37:01.236Z,6.03
2023-02-01T00:39:28.649Z,6.82
2023-02-01T00:41:56.066Z,6.21
2023-02-01T00:44:24.981Z,6.18
2023-02-01T00:46:52.484Z,6.12
2023-02-01T00:49:19.933Z,5.87
2023-02-01T00:51:47.365Z,6.79
2023-02-01T00:54:14.836Z,6.57
2023-02-01T00:56:42.228Z,6.83
2023-02-01T00:59:12.408Z,6.90
2023-02-01T01:01:41.400Z,6.78
2023-02-01T01:04:08.990Z,6.73
2023-02-01T01:06:36.869Z,6.83
2023-02-01T01:09:07.169Z,7.17
2023-02-01T01:11:37.593Z,7.04
2023-02-01T01:14:06.844Z,6.44
2023-02-01T01:16:35.127Z,6.08
2023-02-01T01:19:04.374Z,6.31
2023-02-01T01:21:32.248Z,5.99
2023-02-01T01:23:59.651Z,6.07
2023-02-01T01:26:28.577Z,6.74
2023-02-01T01:28:57.335Z,6.33
2023-02-01T01:31:25.605Z,6.05
2023-02-01T01:33:54.713Z,6.51
2023-02-01T01:36:24.061Z,5.50
2023-02-01T01:38:52.100Z,6.06
2023-02-01T01:41:21.862Z,6.05
2023-02-01T01:43:55.196Z,6.03
2023-02-01T01:46:24.518Z,6.62
2023-02-01T01:49:01.201Z,6.27
2023-02-01T01:51:32.297Z,6.39
2023-02-01T01:54:06.082Z,6.31
2023-02-01T01:56:35.880Z,6.49
2023-02-01T01:59:04.319Z,6.67
2023-02-01T02:01:31.786Z,6.38
2023-02-01T02:04:00.587Z,6.11
2023-02-01T02:06:36.867Z,6.00
2023-02-01T02:09:06.990Z,6.46
2023-02-01T02:11:34.782Z,6.06
2023-02-01T02:14:03.139Z,6.22
2023-02-01T02:16:44.010Z,6.21
2023-02-01T02:19:30.838Z,6.22
2023-02-01T02:22:19.971Z,6.27
2023-02-01T02:25:25.467Z,6.60
2023-02-01T02:28:03.192Z,6.24
2023-02-01T02:30:42.642Z,6.37
2023-02-01T02:33:43.607Z,6.56
2023-02-01T02:36:19.580Z,6.40
2023-02-01T02:38:54.408Z,6.51
2023-02-01T02:41:46.747Z,6.32
2023-02-01T02:44:38.330Z,6.24
2023-02-01T02:47:28.674Z,6.42
2023-02-01T02:50:30.608Z,6.23
2023-02-01T02:53:23.352Z,6.77
2023-02-01T02:55:53.013Z,6.38
2023-02-01T02:58:41.020Z,6.54
2023-02-01T03:01:26.450Z,6.22
2023-02-01T03:04:10.562Z,7.02
2023-02-01T03:06:40.684Z,6.83
2023-02-01T03:09:14.099Z,6.03
2023-02-01T03:12:05.145Z,6.04
2023-02-01T03:14:36.891Z,6.87
2023-02-01T03:17:10.349Z,7.01
2023-02-01T03:19:44.494Z,6.48
2023-02-01T03:22:17.341Z,6.92
2023-02-01T03:24:47.892Z,6.61
2023-02-01T03:27:20.168Z,7.22
2023-02-01T03:29:51.952Z,6.44
2023-02-01T03:32:19.619Z,6.31
2023-02-01T03:34:47.733Z,6.90
2023-02-01T03:37:21.420Z,6.31
2023-02-01T03:39:55.182Z,7.29
2023-02-01T03:42:29.511Z,6.05
2023-02-01T03:45:03.498Z,6.43
2023-02-01T03:47:36.275Z,6.51
2023-02-01T03:50:07.735Z,6.60
2023-02-01T03:52:42.214Z,6.66
2023-02-01T03:55:11.898Z,6.16
2023-02-01T03:57:45.201Z,6.14
2023-02-01T04:00:19.264Z,6.76
2023-02-01T04:02:46.807Z,5.83
2023-02-01T04:05:14.300Z,6.29
2023-02-01T04:07:43.286Z,6.12
2023-02-01T04:10:12.038Z,6.12
2023-02-01T04:12:40.580Z,6.57
2023-02-01T04:15:09.474Z,6.95
2023-02-01T04:20:03.602Z,6.34
2023-02-01T04:22:31.045Z,6.39
2023-02-01T04:24:59.887Z,7.36
2023-02-01T04:27:27.310Z,7.59
2023-02-01T04:29:56.360Z,6.99
2023-02-01T04:32:25.187Z,6.94
2023-02-01T04:34:52.915Z,6.43
2023-02-01T04:37:20.454Z,6.88
2023-02-01T04:39:47.936Z,7.17
2023-02-01T04:42:16.669Z,6.88
2023-02-01T04:44:44.164Z,6.89
2023-02-01T04:47:12.580Z,7.19
2023-02-01T04:49:40.106Z,7.11
2023-02-01T04:52:07.590Z,7.16
2023-02-01T04:54:35.250Z,6.18
2023-02-01T04:57:02.780Z,7.11
2023-02-01T04:59:31.533Z,7.07
2023-02-01T05:01:58.932Z,7.24
2023-02-01T05:04:26.683Z,7.33
2023-02-01T05:06:54.120Z,6.77
2023-02-01T05:09:22.787Z,7.39
2023-02-01T05:12:08.354Z,7.14
2023-02-01T05:14:37.210Z,7.42
2023-02-01T05:17:04.669Z,6.98
2023-02-01T05:19:32.123Z,7.36
2023-02-01T05:21:59.572Z,7.87
2023-02-01T05:24:28.078Z,7.10
2023-02-01T05:26:55.537Z,6.84
2023-02-01T05:29:22.992Z,7.63
2023-02-01T05:31:51.820Z,7.69
2023-02-01T05:34:19.417Z,6.96
2023-02-01T05:36:46.890Z,7.26
2023-02-01T05:39:14.420Z,7.22
2023-02-01T05:41:42.031Z,7.43
2023-02-01T05:44:09.510Z,7.10
2023-02-01T05:46:37.627Z,7.22
2023-02-01T05:49:06.845Z,7.46
2023-02-01T05:51:34.454Z,6.98
2023-02-01T05:54:01.970Z,6.59
2023-02-01T05:56:29.459Z,7.43
2023-02-01T05:58:56.887Z,7.40
2023-02-01T06:01:24.306Z,7.53
2023-02-01T06:03:51.823Z,7.23
2023-02-01T06:06:20.852Z,7.01
2023-02-01T06:08:48.297Z,6.80
2023-02-01T06:11:30.644Z,6.74
2023-02-01T06:13:59.854Z,6.94
2023-02-01T06:16:27.841Z,7.43
2023-02-01T06:18:55.690Z,7.01
2023-02-01T06:21:25.369Z,7.73
2023-02-01T06:23:52.989Z,7.31
2023-02-01T06:26:21.080Z,7.02
2023-02-01T06:28:48.820Z,7.37
2023-02-01T06:31:16.483Z,7.00
2023-02-01T06:33:43.959Z,6.23
2023-02-01T06:36:13.138Z,6.68
2023-02-01T06:38:41.917Z,6.77
2023-02-01T06:41:09.633Z,6.97
2023-02-01T06:43:38.174Z,7.01
2023-02-01T06:46:09.095Z,6.97
2023-02-01T06:48:36.888Z,6.75
2023-02-01T06:51:04.612Z,6.59
2023-02-01T06:53:32.385Z,7.71
2023-02-01T06:56:02.648Z,6.92
2023-02-01T06:58:31.568Z,6.43
2023-02-01T07:00:59.223Z,6.83
2023-02-01T07:03:26.674Z,7.00
2023-02-01T07:05:57.771Z,7.43
2023-02-01T07:08:25.333Z,7.57
2023-02-01T07:10:52.789Z,6.63
2023-02-01T07:13:21.692Z,7.63
2023-02-01T07:15:49.388Z,7.62
2023-02-01T07:18:17.301Z,7.41
2023-02-01T07:20:44.802Z,7.76
2023-02-01T07:23:12.583Z,7.19
2023-02-01T07:25:39.989Z,7.06
2023-02-01T07:28:07.428Z,7.35
2023-02-01T07:30:36.309Z,6.62
2023-02-01T07:33:03.799Z,6.70
2023-02-01T07:35:31.607Z,7.32
2023-02-01T07:37:59.459Z,7.29
2023-02-01T07:40:29.693Z,7.54
2023-02-01T07:42:57.318Z,6.64
2023-02-01T07:45:25.125Z,6.50
2023-02-01T07:47:55.030Z,6.36
2023-02-01T07:50:22.909Z,6.32
2023-02-01T07:52:50.663Z,6.17
2023-02-01T07:55:18.192Z,6.27
2023-02-01T07:57:45.630Z,7.17
2023-02-01T08:00:31.936Z,7.31
2023-02-01T08:03:01.270Z,7.12
2023-02-01T08:05:29.684Z,6.87
2023-02-01T08:07:57.218Z,7.28
2023-02-01T08:10:24.952Z,6.88
2023-02-01T08:12:52.946Z,7.22
2023-02-01T08:15:20.541Z,6.67
2023-02-01T08:17:49.084Z,7.42
2023-02-01T08:20:18.653Z,7.66
2023-02-01T08:22:46.397Z,7.25
2023-02-01T08:25:13.865Z,7.28
2023-02-01T08:27:41.333Z,7.12
2023-02-01T08:30:10.253Z,6.69
2023-02-01T08:32:37.806Z,6.50
2023-02-01T08:35:06.024Z,6.39
2023-02-01T08:37:34.840Z,6.79
2023-02-01T08:40:02.629Z,7.05
2023-02-01T08:42:47.741Z,7.03
2023-02-01T08:45:15.640Z,6.71
2023-02-01T08:47:43.066Z,6.56
2023-02-01T08:50:11.865Z,6.37
2023-02-01T08:52:40.822Z,5.93
2023-02-01T08:55:09.162Z,5.64
2023-02-01T08:57:36.685Z,5.89
2023-02-01T09:00:06.365Z,5.63
2023-02-01T09:02:33.831Z,6.06
2023-02-01T09:05:01.284Z,5.62
2023-02-01T09:07:28.753Z,6.04
2023-02-01T09:10:01.053Z,5.74
2023-02-01T09:12:29.071Z,5.75
2023-02-01T09:14:56.916Z,5.64
2023-02-01T09:17:24.838Z,5.79
2023-02-01T09:19:52.257Z,5.77
2023-02-01T09:22:19.809Z,5.50
2023-02-01T09:24:47.294Z,5.53
2023-02-01T09:27:16.117Z,5.74
2023-02-01T09:29:44.099Z,6.04
2023-02-01T09:32:11.840Z,6.10
2023-02-01T09:34:39.552Z,5.87
2023-02-01T09:37:07.069Z,6.06
2023-02-01T09:39:34.492Z,6.00
2023-02-01T09:42:15.019Z,6.24
2023-02-01T09:45:00.574Z,5.67
2023-02-01T09:47:28.617Z,5.63
2023-02-01T09:50:01.582Z,5.64
2023-02-01T09:52:36.218Z,6.10
2023-02-01T09:55:08.993Z,5.96
2023-02-01T09:57:46.566Z,6.26
2023-02-01T10:00:25.308Z,6.51
2023-02-01T10:02:55.053Z,6.56
2023-02-01T10:05:36.442Z,5.87
2023-02-01T10:08:09.293Z,6.11
2023-02-01T10:10:45.647Z,5.77
2023-02-01T10:13:32.182Z,6.02
2023-02-01T10:16:14.228Z,6.04
2023-02-01T10:19:04.746Z,6.48
2023-02-01T10:21:48.686Z,6.28
2023-02-01T10:24:27.144Z,6.31
2023-02-01T10:27:01.703Z,5.90
2023-02-01T10:29:36.133Z,6.15
2023-02-01T10:32:11.997Z,5.89
2023-02-01T10:34:39.459Z,6.51
2023-02-01T10:37:20.344Z,6.15
2023-02-01T10:39:49.667Z,6.32
2023-02-01T10:42:17.311Z,6.70
2023-02-01T10:44:48.992Z,6.88
2023-02-01T10:47:17.810Z,6.56
2023-02-01T10:49:51.877Z,7.02
2023-02-01T10:52:23.414Z,6.24
2023-02-01T10:54:50.965Z,6.22
2023-02-01T10:57:26.571Z,6.60
2023-02-01T10:59:54.629Z,6.68
2023-02-01T11:02:28.853Z,6.89
2023-02-01T11:05:02.822Z,7.00
2023-02-01T11:07:30.832Z,8.02
2023-02-01T11:09:59.048Z,7.97
2023-02-01T11:12:32.713Z,6.98
2023-02-01T11:15:03.920Z,7.37
2023-02-01T11:17:37.248Z,7.15
2023-02-01T11:20:14.268Z,7.63
2023-02-01T11:22:47.856Z,7.70
2023-02-01T11:25:18.335Z,7.64
2023-02-01T11:27:54.730Z,7.39
2023-02-01T11:30:33.596Z,8.29
2023-02-01T11:33:06.309Z,8.25
2023-02-01T11:35:35.860Z,8.34
2023-02-01T11:38:15.772Z,7.64
2023-02-01T11:40:43.339Z,7.16
2023-02-01T11:43:20.398Z,7.75
2023-02-01T11:45:57.521Z,7.77
2023-02-01T11:48:29.338Z,7.66
2023-02-01T11:51:15.464Z,8.05
2023-02-01T11:53:59.206Z,8.42
2023-02-01T11:56:32.299Z,8.50
2023-02-01T11:59:13.457Z,8.02
2023-02-01T12:01:57.637Z,7.92
2023-02-01T12:04:59.748Z,8.08
2023-02-01T12:07:41.964Z,8.32
2023-02-01T12:10:23.165Z,8.55
2023-02-01T12:13:01.637Z,8.39
2023-02-01T12:15:48.254Z,8.34
2023-02-01T12:18:38.653Z,7.56
2023-02-01T12:21:19.617Z,7.90
2023-02-01T12:23:59.204Z,8.14
2023-02-01T12:26:48.425Z,7.59
2023-02-01T12:29:28.038Z,8.34
2023-02-01T12:32:22.491Z,7.35
2023-02-01T12:35:11.018Z,7.64
2023-02-01T12:37:56.606Z,8.08
2023-02-01T12:40:38.499Z,7.54
2023-02-01T12:43:11.536Z,7.71
2023-02-01T12:45:44.141Z,7.76
2023-02-01T12:48:27.969Z,8.18
2023-02-01T12:51:00.184Z,7.67
2023-02-01T12:53:35.677Z,7.73
2023-02-01T12:56:08.091Z,8.63
2023-02-01T12:58:42.732Z,7.60
2023-02-01T13:01:17.185Z,8.39
2023-02-01T13:03:52.115Z,7.94
2023-02-01T13:06:23.747Z,8.27
2023-02-01T13:08:58.674Z,7.82
2023-02-01T13:11:31.093Z,7.70
2023-02-01T13:14:05.194Z,7.97
2023-02-01T13:16:35.849Z,8.08
2023-02-01T13:19:12.375Z,8.09
2023-02-01T13:21:45.055Z,8.36
2023-02-01T13:24:29.841Z,8.03
2023-02-01T13:26:57.927Z,8.08
2023-02-01T13:29:26.844Z,7.97
2023-02-01T13:32:11.445Z,8.51
2023-02-01T13:35:00.927Z,8.14
2023-02-01T13:37:53.846Z,8.17
2023-02-01T13:40:38.008Z,8.79
2023-02-01T13:43:12.311Z,8.55
2023-02-01T13:45:46.364Z,7.67
2023-02-01T13:48:23.434Z,7.84
2023-02-01T13:50:54.173Z,8.42
2023-02-01T13:53:27.972Z,8.54
2023-02-01T13:56:01.279Z,9.01
2023-02-01T13:58:34.215Z,8.82
2023-02-01T14:01:46.480Z,8.76
2023-02-01T14:04:52.296Z,8.47
2023-02-01T14:07:24.179Z,8.59
2023-02-01T14:09:51.589Z,7.93
2023-02-01T14:12:46.861Z,7.54
2023-02-01T14:15:28.809Z,7.36
2023-02-01T14:17:56.810Z,8.03
2023-02-01T14:20:49.815Z,8.27
2023-02-01T14:23:20.443Z,8.44
2023-02-01T14:26:00.512Z,8.47
2023-02-01T14:28:32.250Z,8.41
2023-02-01T14:31:00.763Z,7.88
2023-02-01T14:33:30.042Z,7.95
2023-02-01T14:36:04.896Z,7.97
2023-02-01T14:38:33.811Z,8.50
2023-02-01T14:41:25.782Z,8.94
2023-02-01T14:44:23.808Z,8.09
2023-02-01T14:47:31.722Z,8.11
2023-02-01T14:50:16.037Z,8.74
2023-02-01T14:52:47.369Z,8.53
2023-02-01T14:55:19.694Z,8.70
2023-02-01T14:57:50.472Z,7.98
2023-02-01T15:00:23.556Z,8.26
2023-02-01T15:02:51.943Z,8.68
2023-02-01T15:05:33.829Z,7.24
2023-02-01T15:08:07.457Z,8.07
2023-02-01T15:10:42.596Z,7.69
2023-02-01T15:13:21.213Z,7.02
2023-02-01T15:16:06.965Z,6.98
2023-02-01T15:18:34.700Z,7.05
2023-02-01T15:21:09.351Z,7.01
2023-02-01T15:23:52.041Z,6.85
2023-02-01T15:26:29.955Z,6.50
2023-02-01T15:28:59.082Z,6.32
2023-02-01T15:31:36.966Z,6.70
2023-02-01T15:34:05.090Z,6.50
2023-02-01T15:36:33.283Z,6.39
2023-02-01T15:39:20.948Z,6.40
2023-02-01T15:41:50.964Z,5.62
2023-02-01T15:44:30.678Z,5.96
2023-02-01T15:47:00.662Z,6.66
2023-02-01T15:49:30.777Z,6.17
2023-02-01T15:52:00.334Z,6.36
2023-02-01T15:54:32.058Z,5.39
2023-02-01T15:57:03.063Z,5.07
2023-02-01T15:59:35.195Z,4.71
2023-02-01T16:02:04.246Z,5.00
2023-02-01T16:04:32.220Z,4.73
2023-02-01T16:07:04.218Z,4.49
2023-02-01T16:09:40.793Z,4.39
2023-02-01T16:12:28.629Z,4.49
2023-02-01T16:14:56.099Z,4.74
2023-02-01T16:17:24.849Z,4.47
2023-02-01T16:19:52.481Z,5.02
2023-02-01T16:22:20.121Z,5.37
2023-02-01T16:24:47.542Z,5.42
2023-02-01T16:27:14.956Z,5.56
2023-02-01T16:29:43.265Z,5.90
2023-02-01T16:32:18.750Z,5.34
2023-02-01T16:34:48.340Z,5.72
2023-02-01T16:37:19.020Z,5.71
2023-02-01T16:39:46.481Z,5.53
2023-02-01T16:42:15.115Z,4.99
2023-02-01T16:44:43.611Z,4.80
2023-02-01T16:47:16.469Z,5.05
2023-02-01T16:49:44.914Z,5.40
2023-02-01T16:52:19.526Z,5.15
2023-02-01T16:54:47.182Z,4.84
2023-02-01T16:57:16.437Z,5.58
2023-02-01T16:59:44.985Z,5.35
2023-02-01T17:02:14.223Z,5.15
2023-02-01T17:04:41.784Z,5.16
2023-02-01T17:07:13.883Z,5.36
2023-02-01T17:09:42.631Z,5.26
2023-02-01T17:12:23.274Z,5.06
2023-02-01T17:14:52.241Z,5.15
2023-02-01T17:17:32.746Z,5.04
2023-02-01T17:20:06.921Z,5.15
2023-02-01T17:22:34.754Z,5.13
2023-02-01T17:25:05.592Z,5.49
2023-02-01T17:27:34.065Z,5.19
2023-02-01T17:30:04.168Z,5.32
2023-02-01T17:32:32.269Z,5.43
2023-02-01T17:34:59.756Z,5.12
2023-02-01T17:37:30.065Z,5.40
2023-02-01T17:39:57.949Z,5.56
2023-02-01T17:42:28.147Z,5.49
2023-02-01T17:44:58.076Z,5.26
2023-02-01T17:47:25.606Z,5.09
2023-02-01T17:49:56.540Z,5.29
2023-02-01T17:52:26.055Z,5.41
2023-02-01T17:54:54.120Z,5.13
2023-02-01T17:57:22.135Z,5.56
2023-02-01T17:59:52.130Z,5.09
2023-02-01T18:02:21.485Z,5.01
2023-02-01T18:04:51.104Z,5.30
2023-02-01T18:07:19.159Z,5.26
2023-02-01T18:09:46.643Z,5.34
2023-02-01T18:12:20.197Z,5.37
2023-02-01T18:14:47.742Z,5.32
2023-02-01T18:17:16.548Z,5.20
2023-02-01T18:19:43.974Z,5.46
2023-02-01T18:22:17.494Z,5.71
2023-02-01T18:24:44.925Z,5.26
2023-02-01T18:27:12.397Z,5.34
2023-02-01T18:29:39.838Z,5.35
2023-02-01T18:32:07.242Z,5.40
2023-02-01T18:34:35.975Z,5.61
2023-02-01T18:37:03.492Z,5.52
2023-02-01T18:39:30.909Z,5.34
2023-02-01T18:41:59.547Z,5.22
2023-02-01T18:44:26.998Z,5.36
2023-02-01T18:46:54.491Z,5.44
2023-02-01T18:49:21.881Z,5.87
2023-02-01T18:51:52.108Z,5.74
2023-02-01T18:54:19.800Z,5.69
2023-02-01T18:56:47.271Z,5.84
2023-02-01T18:59:14.707Z,6.01
2023-02-01T19:01:42.189Z,5.84
2023-02-01T19:04:17.819Z,5.75
2023-02-01T19:06:47.242Z,5.52
2023-02-01T19:09:16.027Z,5.69
2023-02-01T19:11:43.498Z,5.57
2023-02-01T19:14:10.893Z,5.86
2023-02-01T19:16:39.738Z,6.21
2023-02-01T19:19:07.173Z,6.04
2023-02-01T19:21:34.595Z,6.53
2023-02-01T19:24:02.038Z,6.26
2023-02-01T19:26:30.830Z,6.72
2023-02-01T19:28:58.972Z,6.82
2023-02-01T19:31:26.598Z,7.29
2023-02-01T19:33:55.311Z,6.73
2023-02-01T19:36:22.898Z,6.21
2023-02-01T19:38:50.862Z,6.12
2023-02-01T19:41:18.293Z,6.24
2023-02-01T19:43:47.438Z,6.45
2023-02-01T19:46:14.998Z,6.40
2023-02-01T19:48:42.520Z,6.66
2023-02-01T19:51:10.050Z,6.25
2023-02-01T19:53:37.421Z,6.16
2023-02-01T19:56:05.352Z,6.27
2023-02-01T19:58:32.821Z,6.33
2023-02-01T20:01:01.137Z,6.02
2023-02-01T20:03:29.100Z,6.28
2023-02-01T20:05:59.069Z,6.42
2023-02-01T20:08:26.779Z,6.23
2023-02-01T20:10:54.437Z,6.25
2023-02-01T20:13:22.026Z,6.28
2023-02-01T20:15:49.467Z,6.57
2023-02-01T20:18:18.424Z,6.42
2023-02-01T20:20:45.843Z,6.55
2023-02-01T20:23:13.266Z,6.90
2023-02-01T20:25:41.626Z,6.41
2023-02-01T20:28:09.057Z,6.30
2023-02-01T20:30:36.609Z,6.97
2023-02-01T20:33:04.400Z,6.43
2023-02-01T20:35:33.232Z,6.16
2023-02-01T20:38:01.811Z,6.16
2023-02-01T20:40:31.306Z,6.27
2023-02-01T20:42:58.848Z,5.77
2023-02-01T20:45:27.103Z,6.13
2023-02-01T20:47:54.636Z,5.86
2023-02-01T20:50:22.176Z,6.00
2023-02-01T20:52:51.055Z,5.96
2023-02-01T20:55:18.617Z,6.07
2023-02-01T20:57:46.051Z,5.95
2023-02-01T21:00:15.702Z,5.64
2023-02-01T21:02:43.108Z,6.03
2023-02-01T21:05:11.321Z,5.92
2023-02-01T21:07:39.141Z,5.81
2023-02-01T21:10:09.121Z,5.52
2023-02-01T21:12:36.890Z,5.82
2023-02-01T21:15:05.793Z,5.71
2023-02-01T21:17:33.896Z,5.80
2023-02-01T21:20:01.347Z,6.02
2023-02-01T21:22:28.978Z,5.96
2023-02-01T21:24:56.380Z,5.99
2023-02-01T21:27:25.269Z,6.23
2023-02-01T21:29:52.687Z,5.67
2023-02-01T21:32:20.275Z,5.81
2023-02-01T21:34:47.760Z,5.34
2023-02-01T21:37:15.192Z,5.78
2023-02-01T21:39:42.618Z,6.01
2023-02-01T21:42:17.535Z,5.85
2023-02-01T21:44:47.502Z,5.69
2023-02-01T21:47:17.297Z,5.95
2023-02-01T21:49:45.618Z,5.92
2023-02-01T21:52:13.814Z,5.72
2023-02-01T21:54:41.262Z,5.63
2023-02-01T21:57:11.938Z,5.41
2023-02-01T21:59:40.165Z,5.51
2023-02-01T22:02:13.371Z,5.62
2023-02-01T22:04:40.830Z,5.60
2023-02-01T22:07:08.785Z,6.16
2023-02-01T22:09:37.652Z,6.01
2023-02-01T22:12:05.482Z,6.00
2023-02-01T22:14:33.439Z,5.58
2023-02-01T22:17:01.411Z,5.63
2023-02-01T22:19:30.179Z,5.65
2023-02-01T22:21:57.639Z,5.88
2023-02-01T22:24:25.319Z,5.54
2023-02-01T22:26:52.779Z,5.69
2023-02-01T22:29:20.286Z,5.44
2023-02-01T22:31:48.407Z,5.77
2023-02-01T22:34:16.506Z,6.24
2023-02-01T22:36:48.618Z,5.41
2023-02-01T22:39:16.125Z,5.93
2023-02-01T22:41:43.581Z,5.71
2023-02-01T22:44:11.021Z,5.35
2023-02-01T22:46:38.461Z,6.08
2023-02-01T22:49:05.996Z,5.94
2023-02-01T22:51:34.737Z,6.19
2023-02-01T22:54:03.890Z,5.86
2023-02-01T22:56:34.687Z,6.13
2023-02-01T22:59:06.065Z,6.09
2023-02-01T23:01:34.473Z,6.80
2023-02-01T23:04:03.627Z,6.21
2023-02-01T23:06:32.651Z,6.15
2023-02-01T23:09:04.101Z,5.77
2023-02-01T23:11:32.034Z,5.69
2023-02-01T23:13:59.499Z,5.90
2023-02-01T23:16:27.254Z,5.38
2023-02-01T23:18:54.972Z,5.50
2023-02-01T23:21:24.177Z,6.16
2023-02-01T23:23:54.848Z,5.56
2023-02-01T23:26:25.010Z,5.50
2023-02-01T23:28:54.095Z,5.91
2023-02-01T23:31:23.629Z,7.44
2023-02-01T23:33:54.850Z,10.05
2023-02-01T23:36:23.711Z,9.86
2023-02-01T23:38:52.215Z,10.10
2023-02-01T23:41:21.622Z,10.11
2023-02-01T23:44:00.545Z,8.74
2023-02-01T23:46:32.007Z,9.90
2023-02-01T23:49:00.595Z,10.33
2023-02-01T23:51:28.605Z,9.19
2023-02-01T23:53:56.183Z,8.17
2023-02-01T23:56:25.776Z,7.88
2023-02-01T23:58:56.699Z,6.61
